sensor_id;sensor_type;location;lat;lon;timestamp;temperature;humidity
68556;HTU21D;55544;51.032;5.866;2023-02-13T00:02:09;6.83;75.20
68556;HTU21D;55544;51.032;5.866;2023-02-13T00:04:35;6.80;74.90
68556;HTU21D;55544;51.032;5.866;2023-02-13T00:07:00;6.78;74.90
68556;HTU21D;55544;51.032;5.866;2023-02-13T00:09:26;6.75;74.79
68556;HTU21D;55544;51.032;5.866;2023-02-13T00:11:52;6.73;74.67
68556;HTU21D;55544;51.032;5.866;2023-02-13T00:14:18;6.66;74.51
68556;HTU21D;55544;51.032;5.866;2023-02-13T00:16:43;6.60;74.73
68556;HTU21D;55544;51.032;5.866;2023-02-13T00:19:09;6.58;75.19
68556;HTU21D;55544;51.032;5.866;2023-02-13T00:21:35;6.58;75.53
68556;HTU21D;55544;51.032;5.866;2023-02-13T00:24:00;6.58;75.91
68556;HTU21D;55544;51.032;5.866;2023-02-13T00:26:26;6.63;76.05
68556;HTU21D;55544;51.032;5.866;2023-02-13T00:28:52;6.63;75.88
68556;HTU21D;55544;51.032;5.866;2023-02-13T00:31:19;6.65;75.47
68556;HTU21D;55544;51.032;5.866;2023-02-13T00:33:46;6.61;74.35
68556;HTU21D;55544;51.032;5.866;2023-02-13T00:36:15;6.58;74.08
68556;HTU21D;55544;51.032;5.866;2023-02-13T00:38:42;6.43;73.26
68556;HTU21D;55544;51.032;5.866;2023-02-13T00:41:09;6.31;73.19
68556;HTU21D;55544;51.032;5.866;2023-02-13T00:43:35;6.27;72.58
68556;HTU21D;55544;51.032;5.866;2023-02-13T00:46:02;6.20;72.97
68556;HTU21D;55544;51.032;5.866;2023-02-13T00:48:29;6.16;72.83
68556;HTU21D;55544;51.032;5.866;2023-02-13T00:50:56;6.14;72.99
68556;HTU21D;55544;51.032;5.866;2023-02-13T00:53:23;6.13;73.73
68556;HTU21D;55544;51.032;5.866;2023-02-13T00:55:50;6.09;74.86
68556;HTU21D;55544;51.032;5.866;2023-02-13T00:58:18;6.08;75.84
68556;HTU21D;55544;51.032;5.866;2023-02-13T01:00:44;6.02;76.40
68556;HTU21D;55544;51.032;5.866;2023-02-13T01:03:13;6.05;76.86
68556;HTU21D;55544;51.032;5.866;2023-02-13T01:05:39;6.08;77.51
68556;HTU21D;55544;51.032;5.866;2023-02-13T01:08:05;6.07;78.13
68556;HTU21D;55544;51.032;5.866;2023-02-13T01:10:32;6.08;78.21
68556;HTU21D;55544;51.032;5.866;2023-02-13T01:12:58;6.10;78.07
68556;HTU21D;55544;51.032;5.866;2023-02-13T01:15:25;6.06;78.23
68556;HTU21D;55544;51.032;5.866;2023-02-13T01:17:54;6.02;78.61
68556;HTU21D;55544;51.032;5.866;2023-02-13T01:20:24;5.99;79.03
68556;HTU21D;55544;51.032;5.866;2023-02-13T01:22:50;5.98;79.08
68556;HTU21D;55544;51.032;5.866;2023-02-13T01:25:16;5.97;79.29
68556;HTU21D;55544;51.032;5.866;2023-02-13T01:27:42;6.01;79.00
68556;HTU21D;55544;51.032;5.866;2023-02-13T01:30:11;6.07;78.00
68556;HTU21D;55544;51.032;5.866;2023-02-13T01:32:39;6.07;76.47
68556;HTU21D;55544;51.032;5.866;2023-02-13T01:35:06;6.07;75.69
68556;HTU21D;55544;51.032;5.866;2023-02-13T01:37:33;6.06;75.63
68556;HTU21D;55544;51.032;5.866;2023-02-13T01:40:00;6.04;75.90
68556;HTU21D;55544;51.032;5.866;2023-02-13T01:42:28;5.96;76.03
68556;HTU21D;55544;51.032;5.866;2023-02-13T01:47:44;5.90;76.05
68556;HTU21D;55544;51.032;5.866;2023-02-13T01:52:54;5.86;76.08
68556;HTU21D;55544;51.032;5.866;2023-02-13T01:55:23;5.87;76.09
68556;HTU21D;55544;51.032;5.866;2023-02-13T01:58:06;5.86;75.92
68556;HTU21D;55544;51.032;5.866;2023-02-13T02:00:34;5.83;76.02
68556;HTU21D;55544;51.032;5.866;2023-02-13T02:03:13;5.80;76.03
68556;HTU21D;55544;51.032;5.866;2023-02-13T02:05:42;5.78;75.82
68556;HTU21D;55544;51.032;5.866;2023-02-13T02:08:09;5.78;75.12
68556;HTU21D;55544;51.032;5.866;2023-02-13T02:10:38;5.74;74.74
68556;HTU21D;55544;51.032;5.866;2023-02-13T02:13:17;5.65;75.03
68556;HTU21D;55544;51.032;5.866;2023-02-13T02:15:47;5.56;75.38
68556;HTU21D;55544;51.032;5.866;2023-02-13T02:18:20;5.56;75.70
68556;HTU21D;55544;51.032;5.866;2023-02-13T02:27:03;5.56;75.47
68556;HTU21D;55544;51.032;5.866;2023-02-13T02:32:56;5.53;75.86
68556;HTU21D;55544;51.032;5.866;2023-02-13T02:38:25;5.50;74.92
68556;HTU21D;55544;51.032;5.866;2023-02-13T02:41:10;5.45;74.44
68556;HTU21D;55544;51.032;5.866;2023-02-13T02:46:52;5.35;73.17
68556;HTU21D;55544;51.032;5.866;2023-02-13T02:49:49;5.18;73.87
68556;HTU21D;55544;51.032;5.866;2023-02-13T02:52:56;5.07;75.10
68556;HTU21D;55544;51.032;5.866;2023-02-13T02:55:31;4.97;75.31
68556;HTU21D;55544;51.032;5.866;2023-02-13T03:01:15;4.86;75.11
68556;HTU21D;55544;51.032;5.866;2023-02-13T03:04:38;4.88;74.31
68556;HTU21D;55544;51.032;5.866;2023-02-13T03:07:21;4.83;74.55
68556;HTU21D;55544;51.032;5.866;2023-02-13T03:09:52;4.76;75.21
68556;HTU21D;55544;51.032;5.866;2023-02-13T03:12:51;4.73;75.43
68556;HTU21D;55544;51.032;5.866;2023-02-13T03:15:42;4.73;75.57
68556;HTU21D;55544;51.032;5.866;2023-02-13T03:18:34;4.66;76.02
68556;HTU21D;55544;51.032;5.866;2023-02-13T03:33:35;4.44;77.67
68556;HTU21D;55544;51.032;5.866;2023-02-13T03:36:04;4.51;76.82
68556;HTU21D;55544;51.032;5.866;2023-02-13T03:41:24;4.60;76.13
68556;HTU21D;55544;51.032;5.866;2023-02-13T03:44:21;4.61;75.68
68556;HTU21D;55544;51.032;5.866;2023-02-13T03:46:52;4.60;75.80
68556;HTU21D;55544;51.032;5.866;2023-02-13T03:49:23;4.59;75.89
68556;HTU21D;55544;51.032;5.866;2023-02-13T03:52:21;4.57;75.43
68556;HTU21D;55544;51.032;5.866;2023-02-13T03:55:06;4.52;74.81
68556;HTU21D;55544;51.032;5.866;2023-02-13T03:57:57;4.45;74.84
68556;HTU21D;55544;51.032;5.866;2023-02-13T04:00:52;4.34;75.59
68556;HTU21D;55544;51.032;5.866;2023-02-13T04:06:10;3.93;76.87
68556;HTU21D;55544;51.032;5.866;2023-02-13T04:08:37;3.83;77.24
68556;HTU21D;55544;51.032;5.866;2023-02-13T04:13:55;3.78;78.03
68556;HTU21D;55544;51.032;5.866;2023-02-13T04:16:36;3.77;78.43
68556;HTU21D;55544;51.032;5.866;2023-02-13T04:19:05;3.78;78.49
68556;HTU21D;55544;51.032;5.866;2023-02-13T04:21:33;3.86;78.38
68556;HTU21D;55544;51.032;5.866;2023-02-13T04:23:59;3.88;78.72
68556;HTU21D;55544;51.032;5.866;2023-02-13T04:26:34;3.85;78.78
68556;HTU21D;55544;51.032;5.866;2023-02-13T04:29:01;3.89;78.97
68556;HTU21D;55544;51.032;5.866;2023-02-13T04:31:27;3.95;79.13
68556;HTU21D;55544;51.032;5.866;2023-02-13T04:33:52;4.03;78.96
68556;HTU21D;55544;51.032;5.866;2023-02-13T04:36:18;4.08;78.85
68556;HTU21D;55544;51.032;5.866;2023-02-13T04:38:44;4.14;78.66
68556;HTU21D;55544;51.032;5.866;2023-02-13T04:41:10;4.17;77.95
68556;HTU21D;55544;51.032;5.866;2023-02-13T04:43:36;4.20;77.07
68556;HTU21D;55544;51.032;5.866;2023-02-13T04:46:03;4.19;76.42
68556;HTU21D;55544;51.032;5.866;2023-02-13T04:48:28;4.19;75.79
68556;HTU21D;55544;51.032;5.866;2023-02-13T04:50:54;4.14;76.03
68556;HTU21D;55544;51.032;5.866;2023-02-13T04:53:20;4.06;76.51
68556;HTU21D;55544;51.032;5.866;2023-02-13T04:55:46;4.02;76.83
68556;HTU21D;55544;51.032;5.866;2023-02-13T04:58:12;4.02;76.64
68556;HTU21D;55544;51.032;5.866;2023-02-13T05:00:38;3.93;77.01
68556;HTU21D;55544;51.032;5.866;2023-02-13T05:03:06;3.88;77.42
68556;HTU21D;55544;51.032;5.866;2023-02-13T05:05:32;3.88;77.47
68556;HTU21D;55544;51.032;5.866;2023-02-13T05:07:58;3.89;76.85
68556;HTU21D;55544;51.032;5.866;2023-02-13T05:10:24;3.86;76.55
68556;HTU21D;55544;51.032;5.866;2023-02-13T05:12:49;3.79;77.21
68556;HTU21D;55544;51.032;5.866;2023-02-13T05:15:15;3.79;77.46
68556;HTU21D;55544;51.032;5.866;2023-02-13T05:17:45;3.80;77.04
68556;HTU21D;55544;51.032;5.866;2023-02-13T05:20:12;3.83;77.42
68556;HTU21D;55544;51.032;5.866;2023-02-13T05:22:50;3.86;77.75
68556;HTU21D;55544;51.032;5.866;2023-02-13T05:25:36;3.86;78.21
68556;HTU21D;55544;51.032;5.866;2023-02-13T05:28:02;3.88;78.19
68556;HTU21D;55544;51.032;5.866;2023-02-13T05:30:28;3.89;78.16
68556;HTU21D;55544;51.032;5.866;2023-02-13T05:32:53;3.87;78.32
68556;HTU21D;55544;51.032;5.866;2023-02-13T05:35:22;3.87;78.41
68556;HTU21D;55544;51.032;5.866;2023-02-13T05:37:49;3.88;78.21
68556;HTU21D;55544;51.032;5.866;2023-02-13T05:40:15;3.91;78.06
68556;HTU21D;55544;51.032;5.866;2023-02-13T05:42:41;3.91;77.79
68556;HTU21D;55544;51.032;5.866;2023-02-13T05:45:09;3.88;77.87
68556;HTU21D;55544;51.032;5.866;2023-02-13T05:47:35;3.86;77.92
68556;HTU21D;55544;51.032;5.866;2023-02-13T05:50:01;3.86;77.87
68556;HTU21D;55544;51.032;5.866;2023-02-13T05:52:26;3.87;77.73
68556;HTU21D;55544;51.032;5.866;2023-02-13T05:54:52;3.87;77.45
68556;HTU21D;55544;51.032;5.866;2023-02-13T05:57:18;3.89;76.43
68556;HTU21D;55544;51.032;5.866;2023-02-13T05:59:43;3.88;76.18
68556;HTU21D;55544;51.032;5.866;2023-02-13T06:02:09;3.85;76.24
68556;HTU21D;55544;51.032;5.866;2023-02-13T06:04:35;3.84;76.18
68556;HTU21D;55544;51.032;5.866;2023-02-13T06:07:01;3.83;76.02
68556;HTU21D;55544;51.032;5.866;2023-02-13T06:09:27;3.82;76.07
68556;HTU21D;55544;51.032;5.866;2023-02-13T06:11:53;3.78;75.86
68556;HTU21D;55544;51.032;5.866;2023-02-13T06:14:18;3.74;76.28
68556;HTU21D;55544;51.032;5.866;2023-02-13T06:16:44;3.72;76.06
68556;HTU21D;55544;51.032;5.866;2023-02-13T06:19:10;3.70;76.16
68556;HTU21D;55544;51.032;5.866;2023-02-13T06:21:35;3.69;76.63
68556;HTU21D;55544;51.032;5.866;2023-02-13T06:24:04;3.65;77.00
68556;HTU21D;55544;51.032;5.866;2023-02-13T06:26:30;3.60;76.84
68556;HTU21D;55544;51.032;5.866;2023-02-13T06:28:55;3.57;76.92
68556;HTU21D;55544;51.032;5.866;2023-02-13T06:31:21;3.53;76.60
68556;HTU21D;55544;51.032;5.866;2023-02-13T06:33:47;3.47;77.18
68556;HTU21D;55544;51.032;5.866;2023-02-13T06:36:13;3.38;77.91
68556;HTU21D;55544;51.032;5.866;2023-02-13T06:38:38;3.32;78.41
68556;HTU21D;55544;51.032;5.866;2023-02-13T06:41:04;3.36;78.00
68556;HTU21D;55544;51.032;5.866;2023-02-13T06:43:31;3.38;78.01
68556;HTU21D;55544;51.032;5.866;2023-02-13T06:45:57;3.41;77.50
68556;HTU21D;55544;51.032;5.866;2023-02-13T06:48:23;3.36;77.91
68556;HTU21D;55544;51.032;5.866;2023-02-13T06:50:49;3.33;78.01
68556;HTU21D;55544;51.032;5.866;2023-02-13T06:53:18;3.35;78.07
68556;HTU21D;55544;51.032;5.866;2023-02-13T06:55:52;3.35;78.14
68556;HTU21D;55544;51.032;5.866;2023-02-13T06:58:20;3.35;78.27
68556;HTU21D;55544;51.032;5.866;2023-02-13T07:00:46;3.39;78.22
68556;HTU21D;55544;51.032;5.866;2023-02-13T07:03:11;3.38;77.99
68556;HTU21D;55544;51.032;5.866;2023-02-13T07:05:41;3.38;78.01
68556;HTU21D;55544;51.032;5.866;2023-02-13T07:08:08;3.33;78.11
68556;HTU21D;55544;51.032;5.866;2023-02-13T07:10:39;3.33;77.84
68556;HTU21D;55544;51.032;5.866;2023-02-13T07:13:06;3.34;77.84
68556;HTU21D;55544;51.032;5.866;2023-02-13T07:15:34;3.34;77.31
68556;HTU21D;55544;51.032;5.866;2023-02-13T07:17:59;3.32;77.33
68556;HTU21D;55544;51.032;5.866;2023-02-13T07:20:26;3.29;77.85
68556;HTU21D;55544;51.032;5.866;2023-02-13T07:22:52;3.29;78.13
68556;HTU21D;55544;51.032;5.866;2023-02-13T07:25:18;3.30;78.27
68556;HTU21D;55544;51.032;5.866;2023-02-13T07:27:44;3.33;78.37
68556;HTU21D;55544;51.032;5.866;2023-02-13T07:30:10;3.32;78.74
68556;HTU21D;55544;51.032;5.866;2023-02-13T07:32:36;3.32;79.28
68556;HTU21D;55544;51.032;5.866;2023-02-13T07:35:02;3.35;79.66
68556;HTU21D;55544;51.032;5.866;2023-02-13T07:37:29;3.41;79.81
68556;HTU21D;55544;51.032;5.866;2023-02-13T07:39:55;3.45;79.94
68556;HTU21D;55544;51.032;5.866;2023-02-13T07:42:22;3.54;79.87
68556;HTU21D;55544;51.032;5.866;2023-02-13T07:44:48;3.60;79.62
68556;HTU21D;55544;51.032;5.866;2023-02-13T07:47:14;3.67;78.97
68556;HTU21D;55544;51.032;5.866;2023-02-13T07:49:39;3.88;78.56
68556;HTU21D;55544;51.032;5.866;2023-02-13T07:52:05;5.40;74.75
68556;HTU21D;55544;51.032;5.866;2023-02-13T07:54:31;5.96;72.64
68556;HTU21D;55544;51.032;5.866;2023-02-13T07:56:58;6.69;70.69
68556;HTU21D;55544;51.032;5.866;2023-02-13T07:59:23;6.83;70.74
68556;HTU21D;55544;51.032;5.866;2023-02-13T08:01:49;6.45;69.45
68556;HTU21D;55544;51.032;5.866;2023-02-13T08:04:15;6.21;70.30
68556;HTU21D;55544;51.032;5.866;2023-02-13T08:06:41;6.27;70.19
68556;HTU21D;55544;51.032;5.866;2023-02-13T08:09:18;6.36;69.64
68556;HTU21D;55544;51.032;5.866;2023-02-13T08:12:05;6.54;69.41
68556;HTU21D;55544;51.032;5.866;2023-02-13T08:14:31;7.00;67.52
68556;HTU21D;55544;51.032;5.866;2023-02-13T08:16:58;7.91;63.95
68556;HTU21D;55544;51.032;5.866;2023-02-13T08:19:25;9.30;60.52
68556;HTU21D;55544;51.032;5.866;2023-02-13T08:21:51;11.09;58.78
68556;HTU21D;55544;51.032;5.866;2023-02-13T08:24:16;12.49;53.37
68556;HTU21D;55544;51.032;5.866;2023-02-13T08:26:42;13.61;50.48
68556;HTU21D;55544;51.032;5.866;2023-02-13T08:29:08;14.56;49.20
68556;HTU21D;55544;51.032;5.866;2023-02-13T08:31:35;15.38;48.73
68556;HTU21D;55544;51.032;5.866;2023-02-13T08:34:01;15.62;48.95
68556;HTU21D;55544;51.032;5.866;2023-02-13T08:36:27;13.94;48.28
68556;HTU21D;55544;51.032;5.866;2023-02-13T08:38:54;12.44;52.26
68556;HTU21D;55544;51.032;5.866;2023-02-13T08:41:19;11.73;54.42
68556;HTU21D;55544;51.032;5.866;2023-02-13T08:43:47;11.31;55.65
68556;HTU21D;55544;51.032;5.866;2023-02-13T08:46:14;10.78;57.89
68556;HTU21D;55544;51.032;5.866;2023-02-13T08:48:40;10.19;60.41
68556;HTU21D;55544;51.032;5.866;2023-02-13T08:51:07;9.71;62.33
68556;HTU21D;55544;51.032;5.866;2023-02-13T08:53:33;9.34;64.10
68556;HTU21D;55544;51.032;5.866;2023-02-13T08:55:59;9.08;64.58
68556;HTU21D;55544;51.032;5.866;2023-02-13T08:58:25;8.80;65.66
68556;HTU21D;55544;51.032;5.866;2023-02-13T09:00:50;8.57;67.23
68556;HTU21D;55544;51.032;5.866;2023-02-13T09:03:16;8.43;69.07
68556;HTU21D;55544;51.032;5.866;2023-02-13T09:05:42;8.39;69.92
68556;HTU21D;55544;51.032;5.866;2023-02-13T09:08:08;8.44;70.80
68556;HTU21D;55544;51.032;5.866;2023-02-13T09:10:37;8.47;70.37
68556;HTU21D;55544;51.032;5.866;2023-02-13T09:13:04;8.44;70.41
68556;HTU21D;55544;51.032;5.866;2023-02-13T09:15:30;8.37;70.43
68556;HTU21D;55544;51.032;5.866;2023-02-13T09:17:56;8.31;71.11
68556;HTU21D;55544;51.032;5.866;2023-02-13T09:20:22;8.24;71.63
68556;HTU21D;55544;51.032;5.866;2023-02-13T09:22:48;8.18;72.29
68556;HTU21D;55544;51.032;5.866;2023-02-13T09:25:14;8.13;72.91
68556;HTU21D;55544;51.032;5.866;2023-02-13T09:27:39;8.09;73.42
68556;HTU21D;55544;51.032;5.866;2023-02-13T09:30:07;8.08;73.92
68556;HTU21D;55544;51.032;5.866;2023-02-13T09:32:34;8.05;74.38
68556;HTU21D;55544;51.032;5.866;2023-02-13T09:35:00;8.11;74.90
68556;HTU21D;55544;51.032;5.866;2023-02-13T09:37:26;8.13;74.96
68556;HTU21D;55544;51.032;5.866;2023-02-13T09:39:52;8.22;75.59
68556;HTU21D;55544;51.032;5.866;2023-02-13T09:42:25;8.32;75.36
68556;HTU21D;55544;51.032;5.866;2023-02-13T09:44:59;8.49;75.71
68556;HTU21D;55544;51.032;5.866;2023-02-13T09:47:39;8.73;75.79
68556;HTU21D;55544;51.032;5.866;2023-02-13T09:50:17;8.95;75.73
68556;HTU21D;55544;51.032;5.866;2023-02-13T09:52:49;9.18;74.66
68556;HTU21D;55544;51.032;5.866;2023-02-13T09:55:18;9.24;73.53
68556;HTU21D;55544;51.032;5.866;2023-02-13T09:57:58;9.40;74.27
68556;HTU21D;55544;51.032;5.866;2023-02-13T10:00:39;9.67;73.93
68556;HTU21D;55544;51.032;5.866;2023-02-13T10:16:38;11.18;69.77
68556;HTU21D;55544;51.032;5.866;2023-02-13T10:21:58;11.51;68.82
68556;HTU21D;55544;51.032;5.866;2023-02-13T10:27:24;11.88;67.88
68556;HTU21D;55544;51.032;5.866;2023-02-13T10:30:14;12.07;67.21
68556;HTU21D;55544;51.032;5.866;2023-02-13T10:38:31;12.65;65.25
68556;HTU21D;55544;51.032;5.866;2023-02-13T10:55:19;13.23;65.31
68556;HTU21D;55544;51.032;5.866;2023-02-13T10:58:08;13.46;64.69
68556;HTU21D;55544;51.032;5.866;2023-02-13T11:01:09;13.69;63.65
68556;HTU21D;55544;51.032;5.866;2023-02-13T11:03:38;13.56;63.24
68556;HTU21D;55544;51.032;5.866;2023-02-13T11:06:11;13.65;63.82
68556;HTU21D;55544;51.032;5.866;2023-02-13T11:08:42;13.71;63.29
68556;HTU21D;55544;51.032;5.866;2023-02-13T11:11:28;13.89;62.84
68556;HTU21D;55544;51.032;5.866;2023-02-13T11:14:14;14.04;62.16
68556;HTU21D;55544;51.032;5.866;2023-02-13T11:19:25;14.38;61.31
68556;HTU21D;55544;51.032;5.866;2023-02-13T11:24:41;14.75;60.84
68556;HTU21D;55544;51.032;5.866;2023-02-13T11:27:13;14.64;60.22
68556;HTU21D;55544;51.032;5.866;2023-02-13T11:29:55;14.72;60.25
68556;HTU21D;55544;51.032;5.866;2023-02-13T11:32:27;14.83;59.33
68556;HTU21D;55544;51.032;5.866;2023-02-13T11:34:54;14.85;59.12
68556;HTU21D;55544;51.032;5.866;2023-02-13T11:37:26;14.77;59.23
68556;HTU21D;55544;51.032;5.866;2023-02-13T11:39:55;14.78;60.94
68556;HTU21D;55544;51.032;5.866;2023-02-13T11:42:35;14.97;60.66
68556;HTU21D;55544;51.032;5.866;2023-02-13T11:45:22;15.17;60.45
68556;HTU21D;55544;51.032;5.866;2023-02-13T11:47:49;15.51;60.47
68556;HTU21D;55544;51.032;5.866;2023-02-13T11:50:36;15.84;59.73
68556;HTU21D;55544;51.032;5.866;2023-02-13T11:53:08;16.20;58.31
68556;HTU21D;55544;51.032;5.866;2023-02-13T11:55:40;16.49;58.07
68556;HTU21D;55544;51.032;5.866;2023-02-13T12:00:38;17.02;56.03
68556;HTU21D;55544;51.032;5.866;2023-02-13T12:08:34;17.53;55.32
68556;HTU21D;55544;51.032;5.866;2023-02-13T12:11:03;17.75;54.46
68556;HTU21D;55544;51.032;5.866;2023-02-13T12:13:37;17.91;52.90
68556;HTU21D;55544;51.032;5.866;2023-02-13T12:18:55;18.12;53.21
68556;HTU21D;55544;51.032;5.866;2023-02-13T12:26:44;18.27;52.62
68556;HTU21D;55544;51.032;5.866;2023-02-13T12:32:35;18.84;51.95
68556;HTU21D;55544;51.032;5.866;2023-02-13T12:57:01;19.76;47.77
68556;HTU21D;55544;51.032;5.866;2023-02-13T12:59:56;19.65;47.90
68556;HTU21D;55544;51.032;5.866;2023-02-13T13:11:41;19.82;47.73
68556;HTU21D;55544;51.032;5.866;2023-02-13T13:26:45;20.61;45.30
68556;HTU21D;55544;51.032;5.866;2023-02-13T13:29:28;20.85;44.58
68556;HTU21D;55544;51.032;5.866;2023-02-13T13:32:07;21.05;44.22
68556;HTU21D;55544;51.032;5.866;2023-02-13T13:34:36;21.20;43.16
68556;HTU21D;55544;51.032;5.866;2023-02-13T13:42:51;21.29;43.19
68556;HTU21D;55544;51.032;5.866;2023-02-13T13:46:03;21.31;43.16
68556;HTU21D;55544;51.032;5.866;2023-02-13T13:51:01;21.38;44.14
68556;HTU21D;55544;51.032;5.866;2023-02-13T13:53:27;21.46;42.91
68556;HTU21D;55544;51.032;5.866;2023-02-13T14:03:47;21.67;43.19
68556;HTU21D;55544;51.032;5.866;2023-02-13T14:06:16;21.84;43.25
68556;HTU21D;55544;51.032;5.866;2023-02-13T14:16:55;22.58;40.33
68556;HTU21D;55544;51.032;5.866;2023-02-13T14:24:58;22.99;40.87
68556;HTU21D;55544;51.032;5.866;2023-02-13T14:27:33;23.25;40.46
68556;HTU21D;55544;51.032;5.866;2023-02-13T14:30:20;23.52;39.82
68556;HTU21D;55544;51.032;5.866;2023-02-13T14:32:48;23.67;39.10
68556;HTU21D;55544;51.032;5.866;2023-02-13T14:35:24;23.79;38.99
68556;HTU21D;55544;51.032;5.866;2023-02-13T14:37:57;23.88;38.67
68556;HTU21D;55544;51.032;5.866;2023-02-13T14:40:49;23.94;38.72
68556;HTU21D;55544;51.032;5.866;2023-02-13T14:45:55;23.98;37.89
68556;HTU21D;55544;51.032;5.866;2023-02-13T14:48:34;23.99;38.55
68556;HTU21D;55544;51.032;5.866;2023-02-13T14:51:02;24.16;37.92
68556;HTU21D;55544;51.032;5.866;2023-02-13T14:53:37;24.29;37.23
68556;HTU21D;55544;51.032;5.866;2023-02-13T14:56:13;24.21;37.62
68556;HTU21D;55544;51.032;5.866;2023-02-13T14:59:09;24.30;37.43
68556;HTU21D;55544;51.032;5.866;2023-02-13T15:01:45;24.40;36.87
68556;HTU21D;55544;51.032;5.866;2023-02-13T15:04:21;24.36;36.79
68556;HTU21D;55544;51.032;5.866;2023-02-13T15:06:53;24.39;36.62
68556;HTU21D;55544;51.032;5.866;2023-02-13T15:11:58;24.44;36.59
68556;HTU21D;55544;51.032;5.866;2023-02-13T15:14:33;24.54;37.00
68556;HTU21D;55544;51.032;5.866;2023-02-13T15:17:20;24.70;36.82
68556;HTU21D;55544;51.032;5.866;2023-02-13T15:19:50;24.82;36.43
68556;HTU21D;55544;51.032;5.866;2023-02-13T15:22:20;24.87;36.40
68556;HTU21D;55544;51.032;5.866;2023-02-13T15:24:49;24.91;35.80
68556;HTU21D;55544;51.032;5.866;2023-02-13T15:27:39;24.80;35.80
68556;HTU21D;55544;51.032;5.866;2023-02-13T15:30:26;24.73;36.30
68556;HTU21D;55544;51.032;5.866;2023-02-13T15:33:03;24.69;36.02
68556;HTU21D;55544;51.032;5.866;2023-02-13T15:35:33;24.54;36.23
68556;HTU21D;55544;51.032;5.866;2023-02-13T15:41:22;24.45;36.65
68556;HTU21D;55544;51.032;5.866;2023-02-13T15:43:52;24.44;36.48
68556;HTU21D;55544;51.032;5.866;2023-02-13T15:46:26;24.41;36.14
68556;HTU21D;55544;51.032;5.866;2023-02-13T15:48:55;24.30;36.56
68556;HTU21D;55544;51.032;5.866;2023-02-13T15:51:25;24.20;36.41
68556;HTU21D;55544;51.032;5.866;2023-02-13T15:53:58;24.08;36.79
68556;HTU21D;55544;51.032;5.866;2023-02-13T15:56:25;23.94;36.71
68556;HTU21D;55544;51.032;5.866;2023-02-13T15:58:53;23.74;37.49
68556;HTU21D;55544;51.032;5.866;2023-02-13T16:01:19;23.57;37.54
68556;HTU21D;55544;51.032;5.866;2023-02-13T16:03:49;23.41;38.11
68556;HTU21D;55544;51.032;5.866;2023-02-13T16:06:18;23.31;38.43
68556;HTU21D;55544;51.032;5.866;2023-02-13T16:08:53;23.26;38.94
68556;HTU21D;55544;51.032;5.866;2023-02-13T16:11:24;23.23;38.62
68556;HTU21D;55544;51.032;5.866;2023-02-13T16:14:19;23.14;38.82
68556;HTU21D;55544;51.032;5.866;2023-02-13T16:19:39;23.14;39.09
68556;HTU21D;55544;51.032;5.866;2023-02-13T16:25:21;23.17;38.60
68556;HTU21D;55544;51.032;5.866;2023-02-13T16:27:58;23.07;38.62
68556;HTU21D;55544;51.032;5.866;2023-02-13T16:30:26;22.94;39.36
68556;HTU21D;55544;51.032;5.866;2023-02-13T16:35:45;22.65;39.31
68556;HTU21D;55544;51.032;5.866;2023-02-13T16:40:56;22.33;40.16
68556;HTU21D;55544;51.032;5.866;2023-02-13T16:43:55;22.08;40.52
68556;HTU21D;55544;51.032;5.866;2023-02-13T16:46:22;21.91;40.71
68556;HTU21D;55544;51.032;5.866;2023-02-13T16:54:45;21.32;41.76
68556;HTU21D;55544;51.032;5.866;2023-02-13T17:02:22;20.64;41.70
68556;HTU21D;55544;51.032;5.866;2023-02-13T17:04:51;20.29;42.16
68556;HTU21D;55544;51.032;5.866;2023-02-13T17:07:24;19.97;43.35
68556;HTU21D;55544;51.032;5.866;2023-02-13T17:10:18;19.71;44.44
68556;HTU21D;55544;51.032;5.866;2023-02-13T17:12:42;19.47;45.15
68556;HTU21D;55544;51.032;5.866;2023-02-13T17:15:15;19.29;45.79
68556;HTU21D;55544;51.032;5.866;2023-02-13T17:17:41;19.17;46.38
68556;HTU21D;55544;51.032;5.866;2023-02-13T17:20:12;19.08;46.63
68556;HTU21D;55544;51.032;5.866;2023-02-13T17:22:41;18.98;46.28
68556;HTU21D;55544;51.032;5.866;2023-02-13T17:27:59;18.68;47.28
68556;HTU21D;55544;51.032;5.866;2023-02-13T17:30:28;18.62;47.85
68556;HTU21D;55544;51.032;5.866;2023-02-13T17:33:04;18.55;47.66
68556;HTU21D;55544;51.032;5.866;2023-02-13T17:35:30;18.44;47.52
68556;HTU21D;55544;51.032;5.866;2023-02-13T17:37:57;18.38;47.61
68556;HTU21D;55544;51.032;5.866;2023-02-13T17:40:24;18.29;47.53
68556;HTU21D;55544;51.032;5.866;2023-02-13T17:42:54;18.19;47.47
68556;HTU21D;55544;51.032;5.866;2023-02-13T17:45:23;18.09;47.44
68556;HTU21D;55544;51.032;5.866;2023-02-13T17:47:49;17.88;47.57
68556;HTU21D;55544;51.032;5.866;2023-02-13T17:50:15;17.69;47.84
68556;HTU21D;55544;51.032;5.866;2023-02-13T17:52:46;17.54;48.31
68556;HTU21D;55544;51.032;5.866;2023-02-13T17:55:28;17.50;47.89
68556;HTU21D;55544;51.032;5.866;2023-02-13T17:57:55;17.34;48.24
68556;HTU21D;55544;51.032;5.866;2023-02-13T18:00:23;17.29;48.73
68556;HTU21D;55544;51.032;5.866;2023-02-13T18:02:50;17.29;49.16
68556;HTU21D;55544;51.032;5.866;2023-02-13T18:05:17;17.24;49.23
68556;HTU21D;55544;51.032;5.866;2023-02-13T18:07:45;17.08;48.86
68556;HTU21D;55544;51.032;5.866;2023-02-13T18:10:20;16.99;49.45
68556;HTU21D;55544;51.032;5.866;2023-02-13T18:12:48;16.98;50.09
68556;HTU21D;55544;51.032;5.866;2023-02-13T18:15:14;16.98;50.61
68556;HTU21D;55544;51.032;5.866;2023-02-13T18:17:40;16.94;50.67
68556;HTU21D;55544;51.032;5.866;2023-02-13T18:20:09;16.82;51.08
68556;HTU21D;55544;51.032;5.866;2023-02-13T18:22:35;16.73;51.26
68556;HTU21D;55544;51.032;5.866;2023-02-13T18:25:01;16.70;50.79
68556;HTU21D;55544;51.032;5.866;2023-02-13T18:27:27;16.64;51.03
68556;HTU21D;55544;51.032;5.866;2023-02-13T18:29:54;16.61;51.06
68556;HTU21D;55544;51.032;5.866;2023-02-13T18:32:20;16.54;50.92
68556;HTU21D;55544;51.032;5.866;2023-02-13T18:34:46;16.44;50.50
68556;HTU21D;55544;51.032;5.866;2023-02-13T18:37:12;16.20;50.63
68556;HTU21D;55544;51.032;5.866;2023-02-13T18:39:38;15.83;52.01
68556;HTU21D;55544;51.032;5.866;2023-02-13T18:42:05;15.58;52.78
68556;HTU21D;55544;51.032;5.866;2023-02-13T18:44:30;15.55;52.09
68556;HTU21D;55544;51.032;5.866;2023-02-13T18:46:57;15.53;52.13
68556;HTU21D;55544;51.032;5.866;2023-02-13T18:49:23;15.48;52.16
68556;HTU21D;55544;51.032;5.866;2023-02-13T18:51:50;15.42;51.98
68556;HTU21D;55544;51.032;5.866;2023-02-13T18:54:15;15.21;52.02
68556;HTU21D;55544;51.032;5.866;2023-02-13T18:56:43;15.10;52.16
68556;HTU21D;55544;51.032;5.866;2023-02-13T18:59:09;15.10;52.15
68556;HTU21D;55544;51.032;5.866;2023-02-13T19:01:35;15.04;52.02
68556;HTU21D;55544;51.032;5.866;2023-02-13T19:04:02;14.85;53.23
68556;HTU21D;55544;51.032;5.866;2023-02-13T19:06:28;14.49;54.75
68556;HTU21D;55544;51.032;5.866;2023-02-13T19:08:55;14.26;55.73
68556;HTU21D;55544;51.032;5.866;2023-02-13T19:11:22;14.25;55.56
68556;HTU21D;55544;51.032;5.866;2023-02-13T19:13:52;14.32;55.21
68556;HTU21D;55544;51.032;5.866;2023-02-13T19:16:19;14.36;54.91
68556;HTU21D;55544;51.032;5.866;2023-02-13T19:18:48;14.38;54.63
68556;HTU21D;55544;51.032;5.866;2023-02-13T19:21:16;14.36;54.10
68556;HTU21D;55544;51.032;5.866;2023-02-13T19:23:42;14.22;54.06